Time;durP1;ratioP1;P1;durP2;ratioP2;P2;SDS_P1;SDS_P2;PMS_P1;PMS_P2;Temp;Humidity;BMP_temperature;BMP_pressure;BME280_temperature;BME280_humidity;BME280_pressure;Samples;Min_cycle;Max_cycle;Signal;HPM_P1;HPM_P2
2022/06/02 00:01:55;;;;;;;;;3.33;3.33;;;;;17.51;39.40;101427.53;4995460;28;45466;-48
2022/06/02 00:04:44;;;;;;;;;5.00;4.00;;;;;17.37;39.74;101422.88;4996261;28;45542;-49
2022/06/02 00:07:24;;;;;;;;;5.00;3.00;;;;;17.45;40.22;101439.81;4995279;28;46208;-46
2022/06/02 00:09:56;;;;;;;;;7.00;4.00;;;;;17.43;40.52;101443.69;4995445;28;45380;-49
2022/06/02 00:12:31;;;;;;;;;3.33;2.67;;;;;17.39;40.42;101437.81;4995564;28;45289;-50
2022/06/02 00:15:02;;;;;;;;;1.00;1.00;;;;;17.36;40.58;101448.09;4995238;28;45416;-49
2022/06/02 00:18:01;;;;;;;;;2.33;2.33;;;;;17.32;40.30;101453.00;4995277;28;45545;-50
2022/06/02 00:20:44;;;;;;;;;1.67;1.67;;;;;17.31;40.84;101455.84;4995343;28;45441;-51
2022/06/02 00:23:36;;;;;;;;;2.00;2.00;;;;;17.28;40.46;101448.13;4995249;28;45404;-49
2022/06/02 00:26:40;;;;;;;;;2.00;2.00;;;;;17.25;40.76;101452.00;4995160;28;45590;-48
2022/06/02 00:29:33;;;;;;;;;2.00;2.00;;;;;17.19;41.28;101458.06;4994786;28;45550;-47
2022/06/02 00:32:15;;;;;;;;;4.00;2.00;;;;;17.17;41.16;101466.31;5037651;28;45270;-48
2022/06/02 00:35:10;;;;;;;;;3.33;2.00;;;;;17.09;40.90;101457.41;5077275;27;45440;-47
2022/06/02 00:37:45;;;;;;;;;2.67;2.67;;;;;17.13;41.03;101470.34;5077569;27;45505;-48
2022/06/02 00:40:12;;;;;;;;;2.33;2.33;;;;;17.13;41.79;101461.44;5076903;28;46209;-48
2022/06/02 00:43:03;;;;;;;;;3.00;3.00;;;;;17.09;41.29;101463.63;5077272;28;45466;-48
2022/06/02 00:45:29;;;;;;;;;2.33;2.33;;;;;17.09;41.76;101460.94;5077297;28;45607;-50
2022/06/02 00:48:15;;;;;;;;;2.33;2.33;;;;;17.07;41.70;101464.84;5077221;28;45268;-50
2022/06/02 00:50:56;;;;;;;;;3.00;3.00;;;;;17.05;41.42;101466.84;5076960;28;47098;-49
2022/06/02 00:59:51;;;;;;;;;3.00;3.00;;;;;16.87;41.83;101465.19;4974913;28;45410;-49
2022/06/02 01:02:16;;;;;;;;;5.00;3.00;;;;;16.82;42.26;101459.50;4973481;28;46334;-50
2022/06/02 01:04:43;;;;;;;;;2.33;2.33;;;;;16.78;42.52;101458.16;4993931;28;45380;-47
2022/06/02 01:07:26;;;;;;;;;2.00;2.00;;;;;16.78;42.19;101455.47;4996372;28;45354;-48
2022/06/02 01:10:21;;;;;;;;;6.33;2.67;;;;;16.73;41.97;101455.16;4998115;28;45397;-50
2022/06/02 01:13:06;;;;;;;;;5.00;3.67;;;;;16.70;42.45;101458.97;4919697;28;46257;-47
2022/06/02 01:15:56;;;;;;;;;5.67;3.33;;;;;16.67;42.20;101448.56;4919777;28;45469;-49
2022/06/02 01:18:21;;;;;;;;;3.00;3.00;;;;;16.67;42.98;101459.31;4920254;28;45361;-48
2022/06/02 01:20:46;;;;;;;;;3.00;2.00;;;;;16.66;42.65;101463.00;4920350;28;45272;-49
2022/06/02 01:23:47;;;;;;;;;2.00;2.00;;;;;16.61;42.31;101449.25;4920017;28;45342;-48
2022/06/02 01:26:37;;;;;;;;;3.00;3.00;;;;;16.55;42.58;101451.75;4920107;28;45401;-48
2022/06/02 01:29:38;;;;;;;;;4.00;4.00;;;;;16.48;43.36;101456.97;4920759;28;45420;-50
2022/06/02 01:32:17;;;;;;;;;3.00;3.00;;;;;16.43;42.72;101460.16;4850835;29;45557;-50
2022/06/02 01:34:48;;;;;;;;;4.33;3.00;;;;;16.40;43.65;101462.34;4901142;29;47172;-50
2022/06/02 01:37:49;;;;;;;;;4.67;4.67;;;;;16.35;43.61;101451.25;4900833;29;45498;-48
2022/06/02 01:40:48;;;;;;;;;4.00;4.00;;;;;16.31;43.72;101448.06;4900968;29;45438;-49
2022/06/02 01:43:22;;;;;;;;;6.33;3.33;;;;;16.27;43.96;101448.59;4901320;29;45528;-49
2022/06/02 01:46:29;;;;;;;;;3.00;3.00;;;;;16.19;43.54;101454.78;4900507;29;46696;-50
2022/06/02 01:49:06;;;;;;;;;3.67;3.67;;;;;16.19;43.94;101465.50;4914492;28;45457;-48
2022/06/02 01:51:53;;;;;;;;;3.67;3.00;;;;;16.15;44.32;101467.69;4939090;28;45366;-49
2022/06/02 01:54:32;;;;;;;;;4.67;4.00;;;;;16.13;44.46;101467.00;4939271;28;45271;-50
2022/06/02 01:57:19;;;;;;;;;5.33;4.00;;;;;16.08;44.74;101474.69;4938669;28;46524;-48
2022/06/02 01:59:56;;;;;;;;;3.67;3.00;;;;;16.04;44.96;101473.34;4938437;28;45428;-48
2022/06/02 02:02:37;;;;;;;;;5.00;5.00;;;;;15.95;44.75;101456.41;4938991;28;45431;-49
2022/06/02 02:05:32;;;;;;;;;4.00;4.00;;;;;15.98;45.12;101473.19;4941543;28;45564;-49
2022/06/02 02:08:47;;;;;;;;;4.00;4.00;;;;;15.97;44.62;101467.00;4977428;28;47226;-50
2022/06/02 02:11:40;;;;;;;;;4.00;4.00;;;;;15.95;44.70;101464.44;4900052;29;45505;-47
2022/06/02 02:14:21;;;;;;;;;8.00;3.67;;;;;15.94;45.19;101462.78;4900617;29;45421;-50
2022/06/02 02:17:24;;;;;;;;;4.33;3.00;;;;;15.92;44.58;101463.94;4900176;29;45705;-49
2022/06/02 02:19:58;;;;;;;;;4.00;4.00;;;;;15.88;45.27;101465.25;4842796;29;46289;-51
2022/06/02 02:22:41;;;;;;;;;3.67;3.67;;;;;15.86;45.12;101464.59;4843763;29;45415;-49
2022/06/02 02:25:17;;;;;;;;;4.67;4.00;;;;;15.84;44.56;101459.38;4852909;29;45503;-50
2022/06/02 02:30:50;;;;;;;;;6.00;4.67;;;;;15.79;45.40;101452.84;4862194;29;45435;-51
2022/06/02 02:33:38;;;;;;;;;5.00;5.00;;;;;15.77;45.67;101454.84;4861924;29;45396;-50
2022/06/02 02:36:20;;;;;;;;;4.00;4.00;;;;;15.74;45.54;101450.66;4862504;29;45584;-47
2022/06/02 02:38:58;;;;;;;;;4.00;4.00;;;;;15.74;45.00;101455.16;4862338;29;45234;-47
2022/06/02 02:41:43;;;;;;;;;6.00;4.67;;;;;15.71;45.29;101453.66;4862067;29;46151;-49
2022/06/02 02:44:26;;;;;;;;;7.33;5.00;;;;;15.69;46.12;101443.09;4862298;29;45364;-49
2022/06/02 02:47:06;;;;;;;;;8.00;5.00;;;;;15.65;45.74;101436.38;4910528;28;45486;-48
2022/06/02 02:49:43;;;;;;;;;6.00;4.67;;;;;15.65;46.50;101447.09;4957547;28;45596;-50
2022/06/02 02:52:36;;;;;;;;;5.67;4.67;;;;;15.19;46.29;101392.94;4957199;28;46710;-50
2022/06/02 02:55:12;;;;;;;;;8.33;6.00;;;;;15.50;46.18;101448.69;4983743;28;45406;-46
2022/06/02 02:58:24;;;;;;;;;5.00;5.00;;;;;15.60;46.02;101465.50;5038493;28;45371;-50
2022/06/02 03:01:14;;;;;;;;;4.00;4.00;;;;;15.58;46.64;101464.81;5035687;28;45466;-50
2022/06/02 03:03:43;;;;;;;;;5.00;3.00;;;;;15.57;46.17;101471.16;5038322;28;45442;-52
2022/06/02 03:06:28;;;;;;;;;8.00;5.67;;;;;15.38;46.47;101431.19;5038253;28;45414;-50
2022/06/02 03:09:20;;;;;;;;;4.33;4.33;;;;;15.52;46.57;101468.13;5038259;28;45187;-52
2022/06/02 03:12:04;;;;;;;;;6.67;5.67;;;;;15.51;46.53;101461.09;5038410;28;45558;-47
2022/06/02 03:15:02;;;;;;;;;8.00;6.00;;;;;15.49;46.30;101452.38;5038012;28;46301;-49
2022/06/02 03:17:43;;;;;;;;;7.33;5.33;;;;;15.45;46.30;101451.84;5055646;28;45419;-48
2022/06/02 03:20:52;;;;;;;;;5.67;4.67;;;;;15.40;46.39;101454.19;5058197;28;45352;-47
2022/06/02 03:23:35;;;;;;;;;5.67;5.67;;;;;15.37;46.33;101461.69;5058242;28;45435;-48
2022/06/02 03:26:29;;;;;;;;;5.00;4.00;;;;;15.32;46.63;101461.34;5058178;28;46566;-47
2022/06/02 03:29:07;;;;;;;;;5.00;5.00;;;;;15.26;46.69;101453.94;5057699;28;45421;-49
2022/06/02 03:31:50;;;;;;;;;5.00;5.00;;;;;15.29;47.21;101472.38;5057934;28;45522;-51
2022/06/02 03:34:25;;;;;;;;;4.33;4.33;;;;;15.26;47.49;101470.88;5058268;28;45472;-48
2022/06/02 03:37:23;;;;;;;;;7.00;7.00;;;;;15.26;47.03;101478.06;5057806;28;46316;-47
2022/06/02 03:40:04;;;;;;;;;5.67;4.00;;;;;15.24;47.10;101467.50;5058164;28;45359;-50
2022/06/02 03:42:43;;;;;;;;;6.33;6.33;;;;;15.25;47.21;101477.22;5058083;28;45217;-50
2022/06/02 03:45:14;;;;;;;;;6.33;6.33;;;;;15.22;47.72;101473.03;5058395;28;45182;-50
2022/06/02 03:47:42;;;;;;;;;6.00;5.00;;;;;15.21;47.05;101478.53;5057527;28;46939;-51
2022/06/02 03:50:28;;;;;;;;;7.33;7.33;;;;;15.21;47.40;101482.06;5057721;28;45200;-47
2022/06/02 03:53:24;;;;;;;;;6.00;5.00;;;;;15.19;47.09;101476.00;5057847;28;45388;-47
2022/06/02 03:55:55;;;;;;;;;7.33;6.33;;;;;15.19;47.53;101478.69;5057983;28;45381;-49
2022/06/02 03:58:54;;;;;;;;;6.67;5.00;;;;;15.19;47.62;101470.66;5057424;28;46175;-47
2022/06/02 04:01:26;;;;;;;;;6.00;4.33;;;;;15.20;47.66;101474.16;5057120;28;45222;-47
2022/06/02 04:04:24;;;;;;;;;8.00;8.00;;;;;15.17;47.45;101470.00;5057653;28;45363;-49
2022/06/02 04:07:15;;;;;;;;;8.33;7.00;;;;;15.18;47.67;101476.19;5056550;28;45226;-47
2022/06/02 04:10:06;;;;;;;;;5.67;4.00;;;;;15.17;47.59;101480.72;5057460;28;45316;-47
2022/06/02 04:16:07;;;;;;;;;9.00;9.00;;;;;15.20;47.48;101475.00;5057165;28;45452;-48
2022/06/02 04:18:52;;;;;;;;;7.33;6.67;;;;;15.02;47.72;101443.94;5053265;28;45464;-49
2022/06/02 04:21:49;;;;;;;;;5.67;5.67;;;;;15.23;47.19;101487.25;5057021;28;46409;-50
2022/06/02 04:24:29;;;;;;;;;7.67;7.67;;;;;15.23;47.58;101489.94;5057121;28;45301;-48
2022/06/02 04:27:02;;;;;;;;;5.33;5.33;;;;;15.25;47.70;101489.78;5057060;28;45356;-48
2022/06/02 04:29:57;;;;;;;;;11.00;8.67;;;;;15.25;46.97;101489.78;5057370;28;45408;-48
2022/06/02 04:32:40;;;;;;;;;6.33;5.00;;;;;15.14;47.02;101478.34;5056739;28;47006;-49
2022/06/02 04:35:50;;;;;;;;;8.00;6.00;;;;;15.29;47.16;101493.81;5056997;28;45454;-49
2022/06/02 04:38:30;;;;;;;;;8.33;8.00;;;;;15.19;47.01;101484.06;5055755;28;45314;-46
2022/06/02 04:41:24;;;;;;;;;11.00;8.00;;;;;15.39;47.10;101514.16;5056280;28;45345;-48
2022/06/02 04:44:08;;;;;;;;;9.00;8.00;;;;;15.43;47.22;101509.34;5056761;28;46064;-49
2022/06/02 04:46:56;;;;;;;;;8.67;8.67;;;;;15.51;47.20;101500.50;5056196;28;45912;-47
2022/06/02 04:49:45;;;;;;;;;7.00;5.00;;;;;15.56;46.53;101501.69;5057106;28;45280;-46
2022/06/02 04:52:22;;;;;;;;;7.67;5.33;;;;;15.65;46.42;101498.06;5057225;28;45400;-48
2022/06/02 04:54:50;;;;;;;;;7.00;6.00;;;;;15.70;46.66;101497.56;5056686;28;46073;-49
2022/06/02 04:57:35;;;;;;;;;8.00;6.00;;;;;15.75;45.62;101497.91;5056837;28;45399;-49
2022/06/02 05:00:00;;;;;;;;;7.00;5.67;;;;;15.79;46.57;101503.81;5056719;28;45414;-50
2022/06/02 05:03:10;;;;;;;;;6.00;6.00;;;;;15.85;46.27;101504.00;5055636;28;45453;-52
2022/06/02 05:05:54;;;;;;;;;8.33;8.33;;;;;15.94;45.90;101489.59;4974774;28;48981;-49
2022/06/02 05:08:37;;;;;;;;;8.33;8.33;;;;;16.01;45.55;101491.63;4975030;28;45429;-49
2022/06/02 05:11:40;;;;;;;;;7.00;7.00;;;;;16.08;45.50;101496.19;4974764;28;45483;-47
2022/06/02 05:14:36;;;;;;;;;7.00;7.00;;;;;16.12;45.35;101492.16;4975159;28;45449;-48
2022/06/02 05:17:16;;;;;;;;;7.33;6.00;;;;;16.14;45.24;101486.66;4974382;28;46243;-46
2022/06/02 05:20:13;;;;;;;;;7.67;7.67;;;;;16.20;45.38;101497.53;4974546;28;45463;-48
2022/06/02 05:22:41;;;;;;;;;5.33;5.33;;;;;16.25;45.38;101491.69;4974874;28;45334;-47
2022/06/02 05:25:27;;;;;;;;;9.33;7.33;;;;;16.26;44.99;101493.34;4975171;28;45407;-48
2022/06/02 05:28:20;;;;;;;;;10.33;10.33;;;;;16.30;45.37;101493.88;4974349;28;46497;-50
2022/06/02 05:31:08;;;;;;;;;10.67;6.00;;;;;16.36;45.03;101496.75;4974751;28;45386;-51
2022/06/02 05:33:45;;;;;;;;;11.67;9.00;;;;;16.40;45.21;101500.78;4974602;28;45404;-47
2022/06/02 05:36:28;;;;;;;;;10.67;9.00;;;;;16.44;44.86;101495.91;4974867;28;45460;-51
2022/06/02 05:38:59;;;;;;;;;6.67;6.67;;;;;16.49;44.94;101488.19;4974198;28;46146;-50
2022/06/02 05:41:58;;;;;;;;;12.33;9.00;;;;;16.58;44.87;101489.88;4978842;28;45550;-50
2022/06/02 05:44:29;;;;;;;;;6.67;6.67;;;;;16.71;44.61;101495.56;5036104;28;45228;-51
2022/06/02 05:47:06;;;;;;;;;18.00;15.33;;;;;16.81;43.95;101489.22;5035981;28;45453;-49
2022/06/02 05:50:03;;;;;;;;;14.00;9.00;;;;;16.88;43.99;101485.69;5036280;28;46298;-47
2022/06/02 05:52:42;;;;;;;;;5.67;5.67;;;;;16.95;43.49;101486.69;4994017;28;45338;-48
2022/06/02 05:55:31;;;;;;;;;10.00;8.33;;;;;17.04;43.62;101498.25;4997448;28;45425;-51
2022/06/02 05:58:21;;;;;;;;;7.00;7.00;;;;;17.10;43.66;101497.56;4997660;28;45364;-49
2022/06/02 06:01:18;;;;;;;;;5.33;5.33;;;;;17.17;43.80;101487.81;4997416;28;45377;-48
2022/06/02 06:03:58;;;;;;;;;7.67;7.67;;;;;17.24;43.39;101495.22;4997450;28;45400;-48
2022/06/02 06:06:42;;;;;;;;;7.00;6.00;;;;;17.26;43.27;101487.78;4997245;28;45426;-51
2022/06/02 06:09:17;;;;;;;;;12.67;8.00;;;;;17.27;43.35;101486.78;4997471;28;45453;-50
2022/06/02 06:12:23;;;;;;;;;8.33;6.00;;;;;17.28;43.54;101492.00;4996986;28;46700;-47
2022/06/02 06:15:40;;;;;;;;;8.00;6.67;;;;;17.31;42.98;101501.56;4997281;28;45347;-52
2022/06/02 06:18:18;;;;;;;;;7.00;7.00;;;;;17.40;43.37;101503.19;4938288;28;45528;-47
2022/06/02 06:21:12;;;;;;;;;8.67;7.33;;;;;17.48;43.13;101494.28;4938642;28;45316;-50
2022/06/02 06:23:38;;;;;;;;;8.00;8.00;;;;;17.60;43.14;101493.72;4938249;28;47489;-50
2022/06/02 06:26:22;;;;;;;;;12.33;8.33;;;;;17.77;42.92;101501.75;4938502;28;45353;-51
2022/06/02 06:28:59;;;;;;;;;9.33;7.67;;;;;17.94;42.77;101495.28;4943683;28;45415;-50
2022/06/02 06:31:36;;;;;;;;;10.00;7.67;;;;;18.07;42.06;101492.84;4958051;28;45539;-49
2022/06/02 06:34:39;;;;;;;;;9.00;9.00;;;;;18.16;41.99;101494.50;4957533;28;45523;-50
2022/06/02 06:37:11;;;;;;;;;11.67;11.00;;;;;18.17;41.99;101485.38;4881130;29;45468;-51
2022/06/02 06:39:54;;;;;;;;;10.33;9.33;;;;;18.25;41.92;101487.19;4881073;29;45518;-51
2022/06/02 06:42:27;;;;;;;;;9.67;8.33;;;;;19.42;40.65;101477.69;4881311;29;45514;-50
2022/06/02 06:45:03;;;;;;;;;11.00;9.33;;;;;21.64;36.91;101483.91;4880969;29;46081;-52
2022/06/02 06:47:45;;;;;;;;;9.00;8.00;;;;;24.10;33.18;101481.94;4880772;29;45308;-47
2022/06/02 06:50:23;;;;;;;;;11.33;6.67;;;;;26.28;31.61;101478.06;4881253;29;45585;-51
2022/06/02 06:53:19;;;;;;;;;9.00;8.75;;;;;28.15;28.75;101481.69;4886302;29;45602;-51
2022/06/02 06:56:14;;;;;;;;;8.75;7.75;;;;;29.88;25.86;101470.63;4940156;28;46294;-51
2022/06/02 06:58:48;;;;;;;;;9.00;7.20;;;;;30.71;26.26;101473.84;4957489;28;45308;-47
2022/06/02 07:01:39;;;;;;;;;8.00;8.00;;;;;31.57;23.93;101481.00;4957441;28;45387;-52
2022/06/02 07:04:32;;;;;;;;;5.60;5.60;;;;;32.18;22.13;101472.91;4957037;28;45290;-52
2022/06/02 07:07:08;;;;;;;;;9.80;5.20;;;;;32.83;24.69;101483.38;4957310;28;45422;-51
2022/06/02 07:09:47;;;;;;;;;7.60;7.60;;;;;33.71;21.67;101467.13;4957429;28;45433;-51
2022/06/02 07:15:16;;;;;;;;;7.60;4.60;;;;;34.35;20.40;101478.31;5031638;28;45331;-51
2022/06/02 07:17:41;;;;;;;;;7.60;7.60;;;;;34.71;19.87;101478.84;5055576;28;46254;-52
2022/06/02 07:20:20;;;;;;;;;7.00;7.00;;;;;35.43;21.40;101479.72;5058238;28;45229;-48
2022/06/02 07:22:58;;;;;;;;;5.40;5.40;;;;;36.01;18.15;101481.47;5058481;28;45296;-49
2022/06/02 07:25:30;;;;;;;;;5.40;4.80;;;;;36.63;19.90;101482.13;5058601;28;45347;-51
2022/06/02 07:28:09;;;;;;;;;6.40;5.60;;;;;37.24;18.13;101480.16;5058145;28;46190;-51
2022/06/02 07:30:57;;;;;;;;;9.20;6.20;;;;;37.97;18.54;101466.38;5058191;28;45478;-51
2022/06/02 07:33:26;;;;;;;;;6.40;5.60;;;;;38.41;16.71;101479.50;5058192;28;45279;-50
2022/06/02 07:36:15;;;;;;;;;6.60;3.80;;;;;38.95;16.84;101473.91;5058513;28;45367;-48
2022/06/02 07:39:01;;;;;;;;;4.60;4.60;;;;;39.56;15.05;101470.16;4976004;28;46774;-49
2022/06/02 07:41:42;;;;;;;;;6.00;6.00;;;;;39.84;14.80;101473.50;4976112;28;45362;-50
2022/06/02 07:44:16;;;;;;;;;4.60;4.20;;;;;39.59;14.76;101489.00;4990041;28;45481;-51
2022/06/02 07:47:09;;;;;;;;;16.00;14.20;;;;;38.36;15.90;101485.19;4995718;28;45459;-54
2022/06/02 07:49:34;;;;;;;;;10.00;7.40;;;;;38.45;16.79;101486.06;4991020;28;46264;-48
2022/06/02 07:52:12;;;;;;;;;5.00;5.00;;;;;39.39;17.19;101489.63;4979464;28;45506;-47
2022/06/02 07:54:57;;;;;;;;;2.20;2.20;;;;;39.65;16.82;101489.66;4975806;28;45426;-52
2022/06/02 07:57:37;;;;;;;;;5.80;4.00;;;;;39.98;16.25;101489.22;4990855;28;45385;-51
2022/06/02 08:00:18;;;;;;;;;3.60;3.40;;;;;40.11;14.61;101488.25;4995397;28;46230;-51
2022/06/02 08:03:06;;;;;;;;;3.20;3.20;;;;;40.72;14.20;101479.81;4984305;28;45448;-47
2022/06/02 08:05:38;;;;;;;;;5.00;5.00;;;;;41.32;14.39;101470.34;4992251;28;46124;-50
2022/06/02 08:08:16;;;;;;;;;2.80;2.80;;;;;41.62;15.16;101471.16;4992358;28;45534;-54
2022/06/02 08:11:20;;;;;;;;;4.60;3.80;;;;;41.62;13.31;101471.97;4992402;28;46213;-53
2022/06/02 08:13:52;;;;;;;;;3.80;3.80;;;;;41.35;15.15;101467.72;4953034;28;45339;-52
2022/06/02 08:16:28;;;;;;;;;6.20;4.00;;;;;40.61;15.20;101462.63;4977448;28;45492;-52
2022/06/02 08:19:14;;;;;;;;;5.20;4.80;;;;;40.56;15.02;101454.44;4992599;28;45914;-53
2022/06/02 08:21:48;;;;;;;;;5.20;4.20;;;;;40.53;14.97;101455.91;4990782;28;45513;-48
2022/06/02 08:24:25;;;;;;;;;4.80;4.80;;;;;39.65;15.56;101453.47;4992440;28;45888;-51
2022/06/02 08:27:12;;;;;;;;;4.00;2.80;;;;;39.17;14.21;101457.13;4992144;28;45660;-52
2022/06/02 08:30:23;;;;;;;;;3.40;3.40;;;;;39.90;14.15;101455.47;4992498;28;45484;-49
2022/06/02 08:33:10;;;;;;;;;4.60;3.20;;;;;40.27;15.34;101442.00;4933826;28;46186;-52
2022/06/02 08:35:58;;;;;;;;;5.00;4.00;;;;;40.02;14.74;101448.41;4933609;28;45925;-48
2022/06/02 08:39:00;;;;;;;;;3.60;2.60;;;;;39.63;14.79;101439.88;4933704;28;45540;-50
2022/06/02 08:41:59;;;;;;;;;3.80;3.80;;;;;37.57;16.02;101442.00;4933885;28;45487;-52
2022/06/02 08:44:43;;;;;;;;;3.20;3.00;;;;;36.00;17.16;101438.28;4933492;28;45501;-51
2022/06/02 08:47:43;;;;;;;;;6.00;3.40;;;;;34.41;18.38;101430.19;4933941;28;45493;-48
2022/06/02 08:50:11;;;;;;;;;3.60;3.60;;;;;33.25;19.00;101433.41;4888532;28;45564;-51
2022/06/02 08:53:15;;;;;;;;;5.00;3.20;;;;;32.32;19.78;101433.81;4914740;28;45466;-50
2022/06/02 08:55:59;;;;;;;;;4.40;4.40;;;;;31.73;20.58;101432.34;4894723;29;45441;-49
2022/06/02 08:58:46;;;;;;;;;4.00;4.00;;;;;31.32;21.10;101432.22;4895307;29;45465;-51
2022/06/02 09:01:11;;;;;;;;;6.40;4.00;;;;;30.91;20.93;101425.66;4895034;29;45475;-49
2022/06/02 09:03:58;;;;;;;;;5.50;4.50;;;;;30.47;22.21;101440.47;4895680;29;45660;-48
2022/06/02 09:06:40;;;;;;;;;3.80;3.80;;;;;30.31;21.74;101430.44;4895312;29;45517;-45
2022/06/02 09:09:40;;;;;;;;;4.00;4.00;;;;;30.02;22.26;101429.88;4924208;28;45550;-48
2022/06/02 09:12:40;;;;;;;;;4.00;4.00;;;;;29.78;22.75;101423.88;4933619;28;45400;-49
2022/06/02 09:15:36;;;;;;;;;5.20;4.00;;;;;29.94;22.34;101431.16;4837150;29;45406;-50
2022/06/02 09:18:18;;;;;;;;;3.60;3.60;;;;;32.20;20.68;101434.91;4838976;29;47202;-50
2022/06/02 09:21:10;;;;;;;;;4.00;4.00;;;;;35.16;17.96;101426.97;4838772;29;45487;-50
2022/06/02 09:23:47;;;;;;;;;3.80;2.40;;;;;36.73;16.94;101432.03;4824278;29;45581;-48
2022/06/02 09:26:38;;;;;;;;;5.00;5.00;;;;;36.09;16.94;101419.84;4856560;28;45551;-51
2022/06/02 09:29:18;;;;;;;;;3.20;2.80;;;;;36.93;16.45;101418.94;4974436;28;46354;-47
2022/06/02 09:31:46;;;;;;;;;3.20;2.20;;;;;38.90;15.44;101424.81;4975445;28;45558;-50
2022/06/02 09:34:39;;;;;;;;;4.80;3.80;;;;;40.12;15.46;101426.66;4975193;28;45563;-51
2022/06/02 09:37:18;;;;;;;;;4.20;4.20;;;;;39.76;14.16;101435.31;4973413;28;46138;-51
2022/06/02 09:39:55;;;;;;;;;3.00;3.00;;;;;38.58;15.27;101428.72;4974911;28;47300;-52
2022/06/02 09:42:40;;;;;;;;;3.40;3.40;;;;;39.03;15.91;101425.84;4975293;28;45394;-51
2022/06/02 09:45:14;;;;;;;;;5.00;5.00;;;;;39.95;14.15;101428.59;4958586;28;45470;-51
2022/06/02 09:47:49;;;;;;;;;3.20;3.20;;;;;39.75;15.42;101416.16;4975641;28;45510;-49
2022/06/02 09:50:14;;;;;;;;;3.40;3.40;;;;;38.41;15.84;101432.25;4974907;28;47204;-52
2022/06/02 09:53:00;;;;;;;;;6.00;4.50;;;;;39.07;14.29;101435.19;5076292;28;45457;-47
2022/06/02 09:55:57;;;;;;;;;3.60;3.40;;;;;38.55;14.41;101429.38;5076835;28;45442;-51
2022/06/02 09:58:32;;;;;;;;;4.00;4.00;;;;;40.22;14.12;101428.25;5077302;28;45533;-48
2022/06/02 10:01:21;;;;;;;;;2.80;2.40;;;;;41.65;13.77;101424.97;5076666;28;45510;-52
2022/06/02 10:03:52;;;;;;;;;4.60;3.00;;;;;42.64;12.87;101425.00;5076914;28;45350;-54
2022/06/02 10:06:46;;;;;;;;;4.60;3.20;;;;;40.99;13.63;101428.34;5077146;28;45565;-52
2022/06/02 10:09:26;;;;;;;;;3.20;3.20;;;;;40.87;13.46;101424.25;5077006;27;45451;-52
2022/06/02 10:15:25;;;;;;;;;7.60;6.60;;;;;43.23;12.71;101412.50;5076932;28;45447;-53
2022/06/02 10:18:10;;;;;;;;;5.40;5.00;;;;;43.90;11.96;101410.94;5076461;28;45419;-50
2022/06/02 10:21:00;;;;;;;;;4.00;4.00;;;;;44.19;11.52;101412.53;5077897;28;45457;-49
2022/06/02 10:23:49;;;;;;;;;3.00;3.00;;;;;44.49;11.07;101404.53;5078816;28;47176;-49
2022/06/02 10:26:31;;;;;;;;;4.00;4.00;;;;;44.68;10.89;101398.22;5078864;28;45649;-51
2022/06/02 10:29:03;;;;;;;;;5.80;4.60;;;;;44.79;11.64;101399.28;5078972;28;45386;-48
2022/06/02 10:31:38;;;;;;;;;3.20;3.20;;;;;44.69;10.93;101397.03;5079137;28;45349;-50
2022/06/02 10:34:37;;;;;;;;;5.60;4.00;;;;;44.13;11.18;101385.94;5078779;28;45394;-48
2022/06/02 10:37:03;;;;;;;;;3.20;3.20;;;;;43.67;11.24;101387.44;5079024;28;45359;-48
2022/06/02 10:39:46;;;;;;;;;4.00;4.00;;;;;42.98;11.28;101389.31;5077887;28;45478;-51
2022/06/02 10:42:33;;;;;;;;;2.40;2.40;;;;;42.43;11.93;101387.88;5078895;28;45722;-48
2022/06/02 10:45:19;;;;;;;;;8.80;6.80;;;;;41.76;12.23;101401.03;5078315;28;45544;-47
2022/06/02 10:47:47;;;;;;;;;3.00;3.00;;;;;40.73;12.86;101395.78;5077656;28;45410;-50
2022/06/02 10:50:29;;;;;;;;;3.00;3.00;;;;;38.93;13.47;101369.34;5078071;28;45441;-53
2022/06/02 10:53:12;;;;;;;;;4.00;4.00;;;;;37.20;14.83;101396.72;5060528;28;45493;-50
2022/06/02 10:55:52;;;;;;;;;5.80;4.80;;;;;36.21;16.19;101397.22;5078429;28;47268;-52
2022/06/02 10:58:33;;;;;;;;;5.60;5.60;;;;;34.94;16.17;101397.88;5077986;28;45420;-53
2022/06/02 11:01:17;;;;;;;;;8.00;8.00;;;;;33.87;17.94;101395.28;5078398;28;45318;-53
2022/06/02 11:04:16;;;;;;;;;8.60;6.00;;;;;32.97;17.92;101390.78;5078826;28;45460;-48
2022/06/02 11:07:19;;;;;;;;;6.60;4.20;;;;;32.29;19.15;101388.41;5078429;28;46602;-51
2022/06/02 11:10:21;;;;;;;;;6.00;5.00;;;;;31.64;19.79;101374.28;5080079;28;45421;-48
2022/06/02 11:13:05;;;;;;;;;7.20;5.00;;;;;31.01;20.42;101357.03;5085251;28;45301;-49
2022/06/02 11:16:07;;;;;;;;;6.20;4.00;;;;;30.61;20.78;101361.19;5081862;28;45218;-49
2022/06/02 11:18:38;;;;;;;;;6.20;6.00;;;;;30.29;21.56;101364.00;5079431;28;45736;-51
2022/06/02 11:21:45;;;;;;;;;4.40;4.40;;;;;29.94;21.88;101359.03;5080654;28;45466;-45
2022/06/02 11:24:46;;;;;;;;;5.00;3.80;;;;;29.73;21.44;101356.09;5080626;28;45322;-50
2022/06/02 11:27:44;;;;;;;;;5.00;4.00;;;;;29.46;21.95;101358.81;5080067;28;45346;-48
2022/06/02 11:30:37;;;;;;;;;4.80;4.80;;;;;29.08;22.26;101352.34;5079155;28;47597;-47
2022/06/02 11:33:29;;;;;;;;;6.00;6.00;;;;;28.74;22.25;101348.88;5079158;28;45496;-48
2022/06/02 11:36:21;;;;;;;;;6.20;4.80;;;;;28.48;23.10;101355.88;5078461;27;45492;-49
2022/06/02 11:38:53;;;;;;;;;3.80;3.80;;;;;28.29;22.96;101357.22;5078777;28;45509;-46
2022/06/02 11:41:51;;;;;;;;;7.20;5.60;;;;;28.09;23.15;101354.97;5078674;28;46657;-49
2022/06/02 11:44:35;;;;;;;;;4.60;4.60;;;;;28.07;22.91;101346.19;5078593;28;45414;-49
2022/06/02 11:47:12;;;;;;;;;3.80;3.80;;;;;28.17;23.12;101351.81;5078199;28;45419;-49
2022/06/02 11:49:56;;;;;;;;;3.40;3.40;;;;;28.31;23.08;101350.38;5078277;28;45459;-50
2022/06/02 11:52:54;;;;;;;;;5.80;4.20;;;;;28.37;23.38;101342.31;5077593;28;46245;-50
2022/06/02 11:55:37;;;;;;;;;4.60;4.40;;;;;28.41;23.34;101335.25;5077576;27;45402;-50
2022/06/02 11:58:41;;;;;;;;;7.20;6.00;;;;;28.57;23.10;101339.88;5077751;28;45429;-49
2022/06/02 12:01:32;;;;;;;;;4.00;4.00;;;;;28.65;22.86;101328.47;5078026;27;45432;-49
2022/06/02 12:04:32;;;;;;;;;3.40;3.40;;;;;28.75;23.04;101320.41;5077633;27;46375;-50
2022/06/02 12:07:34;;;;;;;;;5.40;3.60;;;;;28.88;22.85;101327.41;5077435;28;45325;-50
2022/06/02 12:10:32;;;;;;;;;5.20;5.00;;;;;28.92;23.02;101328.56;5077745;28;45321;-50
2022/06/02 12:13:07;;;;;;;;;3.40;3.40;;;;;28.94;22.95;101326.38;5075381;28;45360;-47
2022/06/02 12:15:57;;;;;;;;;3.00;3.00;;;;;28.91;22.90;101315.09;5074834;28;46229;-49
2022/06/02 12:18:40;;;;;;;;;3.80;3.80;;;;;29.01;23.19;101312.53;5074820;28;45454;-51
2022/06/02 12:21:55;;;;;;;;;4.00;4.00;;;;;29.05;22.79;101310.94;5075030;28;45447;-48
2022/06/02 12:24:22;;;;;;;;;3.80;3.60;;;;;29.06;22.79;101298.91;5035020;28;45473;-50
2022/06/02 12:26:53;;;;;;;;;5.00;5.00;;;;;28.99;22.89;101287.31;5034306;28;45392;-50
2022/06/02 12:29:24;;;;;;;;;4.00;4.00;;;;;28.94;22.70;101288.03;5034167;28;45422;-49
2022/06/02 12:32:11;;;;;;;;;3.40;3.40;;;;;28.93;22.85;101286.41;5034746;28;45441;-47
2022/06/02 12:35:04;;;;;;;;;5.00;3.80;;;;;28.94;22.90;101281.75;5034907;28;45396;-47
2022/06/02 12:38:05;;;;;;;;;5.00;3.40;;;;;28.84;23.17;101276.97;5034440;28;47280;-50
2022/06/02 12:40:36;;;;;;;;;2.60;2.60;;;;;28.72;23.14;101271.63;5034347;28;45322;-50
2022/06/02 12:43:29;;;;;;;;;4.80;4.00;;;;;28.51;23.48;101267.81;5034637;28;46043;-48
2022/06/02 12:46:13;;;;;;;;;2.80;2.80;;;;;28.35;23.65;101269.50;5034530;28;45587;-48
2022/06/02 12:48:39;;;;;;;;;3.80;3.80;;;;;28.15;23.51;101266.47;5034336;28;46242;-48
2022/06/02 12:51:04;;;;;;;;;3.75;3.75;;;;;27.79;23.72;101268.63;5034095;28;45442;-52
2022/06/02 12:54:00;;;;;;;;;4.25;3.00;;;;;27.48;23.83;101258.22;5034588;28;45399;-48
2022/06/02 12:56:51;;;;;;;;;4.00;4.00;;;;;27.02;24.29;101268.28;5034599;28;45676;-47
2022/06/02 12:59:30;;;;;;;;;4.40;2.20;;;;;26.71;24.78;101272.28;5048017;28;46080;-50
2022/06/02 13:02:07;;;;;;;;;3.80;3.80;;;;;26.56;24.95;101284.53;5076854;28;45433;-50
2022/06/02 13:04:51;;;;;;;;;3.80;3.80;;;;;26.52;24.92;101275.16;5080671;28;45456;-49